sensor_id;sensor_type;location;lat;lon;timestamp;temperature;humidity
7014;DHT22;3547;50.774;12.918;2023-01-24T00:00:35;0.90;1.00
7014;DHT22;3547;50.774;12.918;2023-01-24T00:03:02;0.90;1.00
7014;DHT22;3547;50.774;12.918;2023-01-24T00:05:29;0.90;99.90
7014;DHT22;3547;50.774;12.918;2023-01-24T00:07:55;0.90;99.90
7014;DHT22;3547;50.774;12.918;2023-01-24T00:10:21;0.90;99.90
7014;DHT22;3547;50.774;12.918;2023-01-24T00:12:48;0.90;99.90
7014;DHT22;3547;50.774;12.918;2023-01-24T00:15:14;0.90;1.00
7014;DHT22;3547;50.774;12.918;2023-01-24T00:17:40;0.90;99.90
7014;DHT22;3547;50.774;12.918;2023-01-24T00:20:07;0.90;99.90
7014;DHT22;3547;50.774;12.918;2023-01-24T00:22:33;0.90;99.90
7014;DHT22;3547;50.774;12.918;2023-01-24T00:28:22;0.90;99.90
7014;DHT22;3547;50.774;12.918;2023-01-24T00:30:48;0.80;99.90
7014;DHT22;3547;50.774;12.918;2023-01-24T00:33:14;0.80;99.90
7014;DHT22;3547;50.774;12.918;2023-01-24T00:35:40;0.90;99.90
7014;DHT22;3547;50.774;12.918;2023-01-24T00:38:06;0.90;99.90
7014;DHT22;3547;50.774;12.918;2023-01-24T00:40:32;0.90;99.90
7014;DHT22;3547;50.774;12.918;2023-01-24T00:42:58;0.90;99.90
7014;DHT22;3547;50.774;12.918;2023-01-24T00:45:24;0.90;99.90
7014;DHT22;3547;50.774;12.918;2023-01-24T00:47:51;0.80;99.90
7014;DHT22;3547;50.774;12.918;2023-01-24T00:50:17;0.90;99.90
7014;DHT22;3547;50.774;12.918;2023-01-24T00:52:43;0.90;99.90
7014;DHT22;3547;50.774;12.918;2023-01-24T00:58:32;0.90;99.90
7014;DHT22;3547;50.774;12.918;2023-01-24T01:00:59;1.00;99.90
7014;DHT22;3547;50.774;12.918;2023-01-24T01:03:28;0.90;99.90
7014;DHT22;3547;50.774;12.918;2023-01-24T01:06:06;0.90;99.90
7014;DHT22;3547;50.774;12.918;2023-01-24T01:08:33;1.00;99.90
7014;DHT22;3547;50.774;12.918;2023-01-24T01:11:00;1.00;99.90
7014;DHT22;3547;50.774;12.918;2023-01-24T01:13:27;1.00;99.90
7014;DHT22;3547;50.774;12.918;2023-01-24T01:16:04;1.00;99.90
7014;DHT22;3547;50.774;12.918;2023-01-24T01:18:31;1.00;99.90
7014;DHT22;3547;50.774;12.918;2023-01-24T01:20:57;1.00;99.90
7014;DHT22;3547;50.774;12.918;2023-01-24T01:23:24;1.00;99.90
7014;DHT22;3547;50.774;12.918;2023-01-24T01:25:50;1.00;99.90
7014;DHT22;3547;50.774;12.918;2023-01-24T01:28:16;1.00;99.90
7014;DHT22;3547;50.774;12.918;2023-01-24T01:30:42;1.00;99.90
7014;DHT22;3547;50.774;12.918;2023-01-24T01:33:09;1.00;1.00
7014;DHT22;3547;50.774;12.918;2023-01-24T01:35:35;1.00;99.90
7014;DHT22;3547;50.774;12.918;2023-01-24T01:38:01;1.00;99.90
7014;DHT22;3547;50.774;12.918;2023-01-24T01:40:27;1.00;99.90
7014;DHT22;3547;50.774;12.918;2023-01-24T01:42:55;1.00;99.90
7014;DHT22;3547;50.774;12.918;2023-01-24T01:45:41;1.00;99.90
7014;DHT22;3547;50.774;12.918;2023-01-24T01:50:53;1.00;99.90
7014;DHT22;3547;50.774;12.918;2023-01-24T01:53:22;1.00;99.90
7014;DHT22;3547;50.774;12.918;2023-01-24T01:55:54;1.00;99.90
7014;DHT22;3547;50.774;12.918;2023-01-24T01:58:23;1.00;99.90
7014;DHT22;3547;50.774;12.918;2023-01-24T02:00:49;1.10;99.90
7014;DHT22;3547;50.774;12.918;2023-01-24T02:03:22;0.90;99.90
7014;DHT22;3547;50.774;12.918;2023-01-24T02:06:12;0.90;1.00
7014;DHT22;3547;50.774;12.918;2023-01-24T02:08:40;1.00;1.00
7014;DHT22;3547;50.774;12.918;2023-01-24T02:11:07;0.90;1.00
7014;DHT22;3547;50.774;12.918;2023-01-24T02:13:53;1.00;1.00
7014;DHT22;3547;50.774;12.918;2023-01-24T02:16:39;1.00;1.00
7014;DHT22;3547;50.774;12.918;2023-01-24T02:19:07;1.00;1.00
7014;DHT22;3547;50.774;12.918;2023-01-24T02:21:35;1.00;1.00
7014;DHT22;3547;50.774;12.918;2023-01-24T02:24:17;1.00;1.00
7014;DHT22;3547;50.774;12.918;2023-01-24T02:26:45;1.00;1.00
7014;DHT22;3547;50.774;12.918;2023-01-24T02:29:14;1.10;99.90
7014;DHT22;3547;50.774;12.918;2023-01-24T02:31:56;1.00;99.90
7014;DHT22;3547;50.774;12.918;2023-01-24T02:34:23;1.10;99.90
7014;DHT22;3547;50.774;12.918;2023-01-24T02:37:02;1.00;99.90
7014;DHT22;3547;50.774;12.918;2023-01-24T02:39:32;1.00;99.90
7014;DHT22;3547;50.774;12.918;2023-01-24T02:45:26;1.00;99.90
7014;DHT22;3547;50.774;12.918;2023-01-24T02:47:54;1.00;99.90
7014;DHT22;3547;50.774;12.918;2023-01-24T02:50:24;1.00;99.90
7014;DHT22;3547;50.774;12.918;2023-01-24T02:52:50;1.00;99.90
7014;DHT22;3547;50.774;12.918;2023-01-24T02:55:36;1.00;99.90
7014;DHT22;3547;50.774;12.918;2023-01-24T02:58:26;1.10;99.90
7014;DHT22;3547;50.774;12.918;2023-01-24T03:00:52;1.00;99.90
7014;DHT22;3547;50.774;12.918;2023-01-24T03:03:18;1.10;99.90
7014;DHT22;3547;50.774;12.918;2023-01-24T03:05:45;1.10;99.90
7014;DHT22;3547;50.774;12.918;2023-01-24T03:08:33;1.10;99.90
7014;DHT22;3547;50.774;12.918;2023-01-24T03:11:00;1.10;99.90
7014;DHT22;3547;50.774;12.918;2023-01-24T03:13:27;1.10;99.90
7014;DHT22;3547;50.774;12.918;2023-01-24T03:16:11;1.10;99.90
7014;DHT22;3547;50.774;12.918;2023-01-24T03:18:56;1.10;99.90
7014;DHT22;3547;50.774;12.918;2023-01-24T03:21:41;1.10;99.90
7014;DHT22;3547;50.774;12.918;2023-01-24T03:24:26;1.10;99.90
7014;DHT22;3547;50.774;12.918;2023-01-24T03:27:11;1.10;99.90
7014;DHT22;3547;50.774;12.918;2023-01-24T03:29:55;1.00;99.90
7014;DHT22;3547;50.774;12.918;2023-01-24T03:32:40;1.10;99.90
7014;DHT22;3547;50.774;12.918;2023-01-24T03:38:47;1.00;99.90
7014;DHT22;3547;50.774;12.918;2023-01-24T03:41:32;1.10;99.90
7014;DHT22;3547;50.774;12.918;2023-01-24T03:43:58;1.00;99.90
7014;DHT22;3547;50.774;12.918;2023-01-24T03:46:24;1.10;99.90
7014;DHT22;3547;50.774;12.918;2023-01-24T03:48:50;1.10;99.90
7014;DHT22;3547;50.774;12.918;2023-01-24T03:51:16;1.10;99.90
7014;DHT22;3547;50.774;12.918;2023-01-24T03:54:01;1.10;99.90
7014;DHT22;3547;50.774;12.918;2023-01-24T03:56:27;1.10;99.90
7014;DHT22;3547;50.774;12.918;2023-01-24T03:58:53;1.10;99.90
7014;DHT22;3547;50.774;12.918;2023-01-24T04:01:20;1.10;99.90
7014;DHT22;3547;50.774;12.918;2023-01-24T04:03:46;1.00;99.90
7014;DHT22;3547;50.774;12.918;2023-01-24T04:06:12;1.00;99.90
7014;DHT22;3547;50.774;12.918;2023-01-24T04:08:39;0.90;1.00
7014;DHT22;3547;50.774;12.918;2023-01-24T04:11:05;0.90;1.00
7014;DHT22;3547;50.774;12.918;2023-01-24T04:13:31;1.00;1.00
7014;DHT22;3547;50.774;12.918;2023-01-24T04:15:57;1.00;1.00
7014;DHT22;3547;50.774;12.918;2023-01-24T04:18:23;1.00;1.00
7014;DHT22;3547;50.774;12.918;2023-01-24T04:20:49;1.00;1.00
7014;DHT22;3547;50.774;12.918;2023-01-24T04:23:15;1.10;1.00
7014;DHT22;3547;50.774;12.918;2023-01-24T04:25:42;1.10;1.00
7014;DHT22;3547;50.774;12.918;2023-01-24T04:28:08;1.10;1.00
7014;DHT22;3547;50.774;12.918;2023-01-24T04:30:34;1.10;1.00
7014;DHT22;3547;50.774;12.918;2023-01-24T04:33:00;1.10;99.90
7014;DHT22;3547;50.774;12.918;2023-01-24T04:35:28;1.10;99.90
7014;DHT22;3547;50.774;12.918;2023-01-24T04:37:59;1.10;1.00
7014;DHT22;3547;50.774;12.918;2023-01-24T04:41:05;1.00;1.00
7014;DHT22;3547;50.774;12.918;2023-01-24T04:43:37;1.00;1.00
7014;DHT22;3547;50.774;12.918;2023-01-24T04:46:03;1.00;1.00
7014;DHT22;3547;50.774;12.918;2023-01-24T04:48:29;1.10;1.00
7014;DHT22;3547;50.774;12.918;2023-01-24T04:50:59;1.10;1.00
7014;DHT22;3547;50.774;12.918;2023-01-24T04:53:32;1.00;1.00
7014;DHT22;3547;50.774;12.918;2023-01-24T04:56:01;1.00;1.00
7014;DHT22;3547;50.774;12.918;2023-01-24T04:58:27;1.00;1.00
7014;DHT22;3547;50.774;12.918;2023-01-24T05:00:54;0.90;1.00
7014;DHT22;3547;50.774;12.918;2023-01-24T05:03:20;0.90;1.00
7014;DHT22;3547;50.774;12.918;2023-01-24T05:05:50;0.90;1.00
7014;DHT22;3547;50.774;12.918;2023-01-24T05:08:18;1.00;1.00
7014;DHT22;3547;50.774;12.918;2023-01-24T05:10:45;1.00;1.00
7014;DHT22;3547;50.774;12.918;2023-01-24T05:13:12;1.00;1.00
7014;DHT22;3547;50.774;12.918;2023-01-24T05:15:39;1.00;1.00
7014;DHT22;3547;50.774;12.918;2023-01-24T05:18:11;1.00;1.00
7014;DHT22;3547;50.774;12.918;2023-01-24T05:20:37;1.00;1.00
7014;DHT22;3547;50.774;12.918;2023-01-24T05:23:03;1.00;1.00
7014;DHT22;3547;50.774;12.918;2023-01-24T05:25:30;1.00;1.00
7014;DHT22;3547;50.774;12.918;2023-01-24T05:27:56;1.00;1.00
7014;DHT22;3547;50.774;12.918;2023-01-24T05:30:23;1.00;1.00
7014;DHT22;3547;50.774;12.918;2023-01-24T05:32:49;1.00;1.00
7014;DHT22;3547;50.774;12.918;2023-01-24T05:35:19;1.00;1.00
7014;DHT22;3547;50.774;12.918;2023-01-24T05:40:52;1.00;1.00
7014;DHT22;3547;50.774;12.918;2023-01-24T05:43:20;1.00;1.00
7014;DHT22;3547;50.774;12.918;2023-01-24T05:45:49;1.00;1.00
7014;DHT22;3547;50.774;12.918;2023-01-24T05:48:16;1.00;1.00
7014;DHT22;3547;50.774;12.918;2023-01-24T05:51:04;1.00;1.00
7014;DHT22;3547;50.774;12.918;2023-01-24T05:57:22;1.00;1.00
7014;DHT22;3547;50.774;12.918;2023-01-24T05:59:50;1.00;1.00
7014;DHT22;3547;50.774;12.918;2023-01-24T06:02:37;1.00;1.00
7014;DHT22;3547;50.774;12.918;2023-01-24T06:05:05;1.10;99.90
7014;DHT22;3547;50.774;12.918;2023-01-24T06:11:02;0.90;1.00
7014;DHT22;3547;50.774;12.918;2023-01-24T06:13:56;1.00;1.00
7014;DHT22;3547;50.774;12.918;2023-01-24T06:16:27;1.00;1.00
7014;DHT22;3547;50.774;12.918;2023-01-24T06:18:54;1.00;1.00
7014;DHT22;3547;50.774;12.918;2023-01-24T06:24:02;1.00;1.00
7014;DHT22;3547;50.774;12.918;2023-01-24T06:38:32;1.00;1.00
7014;DHT22;3547;50.774;12.918;2023-01-24T06:41:16;1.00;1.00
7014;DHT22;3547;50.774;12.918;2023-01-24T06:43:53;1.00;1.00
7014;DHT22;3547;50.774;12.918;2023-01-24T06:46:19;1.00;1.00
7014;DHT22;3547;50.774;12.918;2023-01-24T06:48:46;1.00;99.90
7014;DHT22;3547;50.774;12.918;2023-01-24T06:51:13;1.00;99.90
7014;DHT22;3547;50.774;12.918;2023-01-24T06:53:42;1.00;1.00
7014;DHT22;3547;50.774;12.918;2023-01-24T06:56:09;1.00;99.90
7014;DHT22;3547;50.774;12.918;2023-01-24T06:58:36;1.00;99.90
7014;DHT22;3547;50.774;12.918;2023-01-24T07:01:02;1.00;99.90
7014;DHT22;3547;50.774;12.918;2023-01-24T07:03:29;1.00;99.90
7014;DHT22;3547;50.774;12.918;2023-01-24T07:05:56;1.00;99.90
7014;DHT22;3547;50.774;12.918;2023-01-24T07:08:22;1.00;99.90
7014;DHT22;3547;50.774;12.918;2023-01-24T07:10:49;1.00;99.90
7014;DHT22;3547;50.774;12.918;2023-01-24T07:13:15;0.90;1.00
7014;DHT22;3547;50.774;12.918;2023-01-24T07:15:41;1.00;1.00
7014;DHT22;3547;50.774;12.918;2023-01-24T07:18:08;1.00;1.00
7014;DHT22;3547;50.774;12.918;2023-01-24T07:20:39;1.00;1.00
7014;DHT22;3547;50.774;12.918;2023-01-24T07:23:07;1.00;1.00
7014;DHT22;3547;50.774;12.918;2023-01-24T07:25:38;1.00;1.00
7014;DHT22;3547;50.774;12.918;2023-01-24T07:28:06;1.00;1.00
7014;DHT22;3547;50.774;12.918;2023-01-24T07:30:33;1.00;1.00
7014;DHT22;3547;50.774;12.918;2023-01-24T07:32:59;1.00;1.00
7014;DHT22;3547;50.774;12.918;2023-01-24T07:35:26;1.00;1.00
7014;DHT22;3547;50.774;12.918;2023-01-24T07:37:54;1.00;1.00
7014;DHT22;3547;50.774;12.918;2023-01-24T07:40:20;1.10;99.90
7014;DHT22;3547;50.774;12.918;2023-01-24T07:42:47;1.10;99.90
7014;DHT22;3547;50.774;12.918;2023-01-24T07:45:13;1.10;99.90
7014;DHT22;3547;50.774;12.918;2023-01-24T07:47:40;1.10;99.90
7014;DHT22;3547;50.774;12.918;2023-01-24T07:50:07;0.90;99.90
7014;DHT22;3547;50.774;12.918;2023-01-24T07:52:33;1.00;1.00
7014;DHT22;3547;50.774;12.918;2023-01-24T07:55:00;0.90;1.00
7014;DHT22;3547;50.774;12.918;2023-01-24T07:57:26;1.00;1.00
7014;DHT22;3547;50.774;12.918;2023-01-24T07:59:52;1.00;1.00
7014;DHT22;3547;50.774;12.918;2023-01-24T08:02:18;1.10;1.00
7014;DHT22;3547;50.774;12.918;2023-01-24T08:04:44;1.10;99.90
7014;DHT22;3547;50.774;12.918;2023-01-24T08:07:10;1.10;99.90
7014;DHT22;3547;50.774;12.918;2023-01-24T08:09:44;1.20;99.90
7014;DHT22;3547;50.774;12.918;2023-01-24T08:12:11;1.20;99.90
7014;DHT22;3547;50.774;12.918;2023-01-24T08:14:38;1.20;99.90
7014;DHT22;3547;50.774;12.918;2023-01-24T08:17:04;1.20;99.90
7014;DHT22;3547;50.774;12.918;2023-01-24T08:19:30;1.30;99.90
7014;DHT22;3547;50.774;12.918;2023-01-24T08:21:57;1.30;99.90
7014;DHT22;3547;50.774;12.918;2023-01-24T08:24:23;1.30;99.90
7014;DHT22;3547;50.774;12.918;2023-01-24T08:26:50;1.30;99.90
7014;DHT22;3547;50.774;12.918;2023-01-24T08:29:17;1.40;99.90
7014;DHT22;3547;50.774;12.918;2023-01-24T08:31:43;1.40;99.90
7014;DHT22;3547;50.774;12.918;2023-01-24T08:34:10;1.40;99.90
7014;DHT22;3547;50.774;12.918;2023-01-24T08:36:36;1.40;99.90
7014;DHT22;3547;50.774;12.918;2023-01-24T08:39:03;1.50;99.90
7014;DHT22;3547;50.774;12.918;2023-01-24T08:41:32;1.50;99.90
7014;DHT22;3547;50.774;12.918;2023-01-24T08:43:58;1.50;99.90
7014;DHT22;3547;50.774;12.918;2023-01-24T08:46:25;1.50;99.90
7014;DHT22;3547;50.774;12.918;2023-01-24T08:48:52;1.50;99.90
7014;DHT22;3547;50.774;12.918;2023-01-24T08:51:18;1.50;99.90
7014;DHT22;3547;50.774;12.918;2023-01-24T08:53:44;1.50;99.90
7014;DHT22;3547;50.774;12.918;2023-01-24T08:56:11;1.40;99.90
7014;DHT22;3547;50.774;12.918;2023-01-24T08:58:38;1.40;99.90
7014;DHT22;3547;50.774;12.918;2023-01-24T09:01:10;1.40;99.90
7014;DHT22;3547;50.774;12.918;2023-01-24T09:03:37;1.60;99.90
7014;DHT22;3547;50.774;12.918;2023-01-24T09:06:04;1.50;99.90
7014;DHT22;3547;50.774;12.918;2023-01-24T09:08:46;1.50;99.90
7014;DHT22;3547;50.774;12.918;2023-01-24T09:11:14;1.50;99.90
7014;DHT22;3547;50.774;12.918;2023-01-24T09:13:40;1.60;99.90
7014;DHT22;3547;50.774;12.918;2023-01-24T09:16:06;1.70;99.90
7014;DHT22;3547;50.774;12.918;2023-01-24T09:18:32;1.70;99.90
7014;DHT22;3547;50.774;12.918;2023-01-24T09:21:02;1.70;99.90
7014;DHT22;3547;50.774;12.918;2023-01-24T09:23:29;1.80;99.90
7014;DHT22;3547;50.774;12.918;2023-01-24T09:25:56;1.70;99.90
7014;DHT22;3547;50.774;12.918;2023-01-24T09:28:22;1.70;99.90
7014;DHT22;3547;50.774;12.918;2023-01-24T09:30:49;1.80;99.90
7014;DHT22;3547;50.774;12.918;2023-01-24T09:33:16;1.90;99.90
7014;DHT22;3547;50.774;12.918;2023-01-24T09:35:51;1.90;99.90
7014;DHT22;3547;50.774;12.918;2023-01-24T09:38:19;2.00;99.90
7014;DHT22;3547;50.774;12.918;2023-01-24T09:44:03;2.10;99.90
7014;DHT22;3547;50.774;12.918;2023-01-24T09:46:42;2.10;99.90
7014;DHT22;3547;50.774;12.918;2023-01-24T09:52:06;2.20;99.90
7014;DHT22;3547;50.774;12.918;2023-01-24T09:55:00;2.30;99.10
7014;DHT22;3547;50.774;12.918;2023-01-24T09:57:52;2.30;92.10
7014;DHT22;3547;50.774;12.918;2023-01-24T10:00:31;2.30;93.50
7014;DHT22;3547;50.774;12.918;2023-01-24T10:03:00;2.30;88.70
7014;DHT22;3547;50.774;12.918;2023-01-24T10:05:37;2.10;82.10
7014;DHT22;3547;50.774;12.918;2023-01-24T10:19:24;2.50;83.70
7014;DHT22;3547;50.774;12.918;2023-01-24T10:25:06;2.40;71.90
7014;DHT22;3547;50.774;12.918;2023-01-24T10:27:41;2.60;78.90
7014;DHT22;3547;50.774;12.918;2023-01-24T10:30:22;2.70;63.20
7014;DHT22;3547;50.774;12.918;2023-01-24T10:32:52;2.50;33.10
7014;DHT22;3547;50.774;12.918;2023-01-24T10:35:36;2.10;46.70
7014;DHT22;3547;50.774;12.918;2023-01-24T10:38:06;2.30;69.60
7014;DHT22;3547;50.774;12.918;2023-01-24T10:40:48;2.40;70.90
7014;DHT22;3547;50.774;12.918;2023-01-24T10:43:16;2.60;72.80
7014;DHT22;3547;50.774;12.918;2023-01-24T10:46:34;2.70;60.30
7014;DHT22;3547;50.774;12.918;2023-01-24T10:48:42;2.80;55.40
7014;DHT22;3547;50.774;12.918;2023-01-24T10:53:39;2.90;41.10
7014;DHT22;3547;50.774;12.918;2023-01-24T10:56:06;2.90;41.80
7014;DHT22;3547;50.774;12.918;2023-01-24T11:01:32;3.00;42.10
7014;DHT22;3547;50.774;12.918;2023-01-24T11:03:58;3.10;29.80
7014;DHT22;3547;50.774;12.918;2023-01-24T11:06:33;3.00;18.40
7014;DHT22;3547;50.774;12.918;2023-01-24T11:11:43;3.00;8.60
7014;DHT22;3547;50.774;12.918;2023-01-24T11:14:14;3.00;15.10
7014;DHT22;3547;50.774;12.918;2023-01-24T11:16:42;3.00;21.30
7014;DHT22;3547;50.774;12.918;2023-01-24T11:21:56;3.00;16.40
7014;DHT22;3547;50.774;12.918;2023-01-24T11:24:24;2.90;14.70
7014;DHT22;3547;50.774;12.918;2023-01-24T11:29:28;2.90;6.50
7014;DHT22;3547;50.774;12.918;2023-01-24T11:31:56;3.00;14.50
7014;DHT22;3547;50.774;12.918;2023-01-24T11:42:50;3.00;7.70
7014;DHT22;3547;50.774;12.918;2023-01-24T11:53:55;2.70;1.00
7014;DHT22;3547;50.774;12.918;2023-01-24T11:56:51;2.60;8.60
7014;DHT22;3547;50.774;12.918;2023-01-24T11:59:49;2.30;10.80
7014;DHT22;3547;50.774;12.918;2023-01-24T12:21:09;2.60;16.50
7014;DHT22;3547;50.774;12.918;2023-01-24T12:26:29;2.50;16.00
7014;DHT22;3547;50.774;12.918;2023-01-24T12:29:20;2.50;14.40
7014;DHT22;3547;50.774;12.918;2023-01-24T12:31:52;2.40;12.70
7014;DHT22;3547;50.774;12.918;2023-01-24T12:45:25;2.40;20.20
7014;DHT22;3547;50.774;12.918;2023-01-24T12:47:58;2.40;16.20
7014;DHT22;3547;50.774;12.918;2023-01-24T12:50:43;2.40;15.00
7014;DHT22;3547;50.774;12.918;2023-01-24T12:56:15;2.40;17.60
7014;DHT22;3547;50.774;12.918;2023-01-24T12:58:46;2.40;15.00
7014;DHT22;3547;50.774;12.918;2023-01-24T13:02:19;2.40;16.90
7014;DHT22;3547;50.774;12.918;2023-01-24T13:10:32;2.30;16.20
7014;DHT22;3547;50.774;12.918;2023-01-24T13:13:00;2.30;16.00
7014;DHT22;3547;50.774;12.918;2023-01-24T13:15:46;2.30;14.00
7014;DHT22;3547;50.774;12.918;2023-01-24T13:24:31;2.20;17.10
7014;DHT22;3547;50.774;12.918;2023-01-24T13:30:05;2.20;16.00
7014;DHT22;3547;50.774;12.918;2023-01-24T13:32:36;2.10;18.30
7014;DHT22;3547;50.774;12.918;2023-01-24T13:35:20;2.10;15.00
7014;DHT22;3547;50.774;12.918;2023-01-24T13:37:59;2.10;12.80
7014;DHT22;3547;50.774;12.918;2023-01-24T13:40:29;2.10;16.60
7014;DHT22;3547;50.774;12.918;2023-01-24T13:46:01;2.10;15.10
7014;DHT22;3547;50.774;12.918;2023-01-24T13:51:31;2.10;11.90
7014;DHT22;3547;50.774;12.918;2023-01-24T13:54:04;2.00;12.50
7014;DHT22;3547;50.774;12.918;2023-01-24T13:56:32;2.10;12.80
7014;DHT22;3547;50.774;12.918;2023-01-24T13:59:18;2.10;15.70
7014;DHT22;3547;50.774;12.918;2023-01-24T14:01:45;2.10;14.80
7014;DHT22;3547;50.774;12.918;2023-01-24T14:04:12;2.10;14.50
7014;DHT22;3547;50.774;12.918;2023-01-24T14:06:58;2.10;15.80
7014;DHT22;3547;50.774;12.918;2023-01-24T14:09:25;2.00;14.20
7014;DHT22;3547;50.774;12.918;2023-01-24T14:12:00;2.00;16.10
7014;DHT22;3547;50.774;12.918;2023-01-24T14:14:35;2.00;14.80
7014;DHT22;3547;50.774;12.918;2023-01-24T14:17:17;1.90;16.50
7014;DHT22;3547;50.774;12.918;2023-01-24T14:19:50;1.90;18.10
7014;DHT22;3547;50.774;12.918;2023-01-24T14:22:21;1.80;13.90
7014;DHT22;3547;50.774;12.918;2023-01-24T14:31:02;1.70;23.60
7014;DHT22;3547;50.774;12.918;2023-01-24T14:34:04;1.70;25.40
7014;DHT22;3547;50.774;12.918;2023-01-24T14:36:34;1.60;20.10
7014;DHT22;3547;50.774;12.918;2023-01-24T14:39:23;1.60;36.60
7014;DHT22;3547;50.774;12.918;2023-01-24T14:41:53;1.60;45.10
7014;DHT22;3547;50.774;12.918;2023-01-24T14:47:48;1.50;40.20
7014;DHT22;3547;50.774;12.918;2023-01-24T14:52:49;1.60;46.90
7014;DHT22;3547;50.774;12.918;2023-01-24T14:55:36;1.60;45.80
7014;DHT22;3547;50.774;12.918;2023-01-24T15:00:46;1.50;55.30
7014;DHT22;3547;50.774;12.918;2023-01-24T15:03:20;1.50;58.80
7014;DHT22;3547;50.774;12.918;2023-01-24T15:05:56;1.50;56.60
7014;DHT22;3547;50.774;12.918;2023-01-24T15:08:22;1.40;56.10
7014;DHT22;3547;50.774;12.918;2023-01-24T15:11:37;1.30;62.30
7014;DHT22;3547;50.774;12.918;2023-01-24T15:13:48;1.30;66.60
7014;DHT22;3547;50.774;12.918;2023-01-24T15:19:16;1.40;64.00
7014;DHT22;3547;50.774;12.918;2023-01-24T15:21:46;1.40;62.20
7014;DHT22;3547;50.774;12.918;2023-01-24T15:24:20;1.30;65.90
7014;DHT22;3547;50.774;12.918;2023-01-24T15:26:48;1.30;75.80
7014;DHT22;3547;50.774;12.918;2023-01-24T15:32:00;1.30;83.90
7014;DHT22;3547;50.774;12.918;2023-01-24T15:34:26;1.30;79.30
7014;DHT22;3547;50.774;12.918;2023-01-24T15:36:58;1.20;85.10
7014;DHT22;3547;50.774;12.918;2023-01-24T15:39:24;1.20;90.40
7014;DHT22;3547;50.774;12.918;2023-01-24T15:41:51;1.20;90.40
7014;DHT22;3547;50.774;12.918;2023-01-24T15:44:46;1.20;90.20
7014;DHT22;3547;50.774;12.918;2023-01-24T15:47:20;1.20;86.00
7014;DHT22;3547;50.774;12.918;2023-01-24T15:50:20;1.20;87.20
7014;DHT22;3547;50.774;12.918;2023-01-24T15:53:31;1.10;90.30
7014;DHT22;3547;50.774;12.918;2023-01-24T15:56:02;1.10;90.90
7014;DHT22;3547;50.774;12.918;2023-01-24T15:58:29;1.10;93.60
7014;DHT22;3547;50.774;12.918;2023-01-24T16:00:58;1.10;93.80
7014;DHT22;3547;50.774;12.918;2023-01-24T16:03:25;1.10;91.10
7014;DHT22;3547;50.774;12.918;2023-01-24T16:05:52;1.10;95.00
7014;DHT22;3547;50.774;12.918;2023-01-24T16:08:18;1.10;96.80
7014;DHT22;3547;50.774;12.918;2023-01-24T16:10:46;1.10;97.40
7014;DHT22;3547;50.774;12.918;2023-01-24T16:13:33;1.10;97.80
7014;DHT22;3547;50.774;12.918;2023-01-24T16:16:04;1.10;98.30
7014;DHT22;3547;50.774;12.918;2023-01-24T16:18:30;1.10;99.90
7014;DHT22;3547;50.774;12.918;2023-01-24T16:20:56;1.10;99.90
7014;DHT22;3547;50.774;12.918;2023-01-24T16:23:23;1.10;99.90
7014;DHT22;3547;50.774;12.918;2023-01-24T16:25:51;1.00;99.90
7014;DHT22;3547;50.774;12.918;2023-01-24T16:28:24;1.00;99.90
7014;DHT22;3547;50.774;12.918;2023-01-24T16:30:51;0.90;99.90
7014;DHT22;3547;50.774;12.918;2023-01-24T16:33:19;1.00;99.90
7014;DHT22;3547;50.774;12.918;2023-01-24T16:35:46;1.00;99.90
7014;DHT22;3547;50.774;12.918;2023-01-24T16:38:14;0.90;99.90
7014;DHT22;3547;50.774;12.918;2023-01-24T16:40:41;0.90;99.90
7014;DHT22;3547;50.774;12.918;2023-01-24T16:43:17;1.00;99.90
7014;DHT22;3547;50.774;12.918;2023-01-24T16:45:46;0.90;99.90
7014;DHT22;3547;50.774;12.918;2023-01-24T16:48:13;1.00;99.90
7014;DHT22;3547;50.774;12.918;2023-01-24T16:50:40;1.00;99.90
7014;DHT22;3547;50.774;12.918;2023-01-24T16:53:06;1.00;99.90
7014;DHT22;3547;50.774;12.918;2023-01-24T16:55:33;1.00;99.90
7014;DHT22;3547;50.774;12.918;2023-01-24T16:58:01;1.00;99.90
7014;DHT22;3547;50.774;12.918;2023-01-24T17:00:27;1.00;99.80
7014;DHT22;3547;50.774;12.918;2023-01-24T17:02:53;1.00;98.20
7014;DHT22;3547;50.774;12.918;2023-01-24T17:05:20;1.00;99.50
7014;DHT22;3547;50.774;12.918;2023-01-24T17:07:49;1.00;98.30
7014;DHT22;3547;50.774;12.918;2023-01-24T17:10:16;1.00;95.20
7014;DHT22;3547;50.774;12.918;2023-01-24T17:12:42;1.00;99.90
7014;DHT22;3547;50.774;12.918;2023-01-24T17:15:08;1.00;98.90
7014;DHT22;3547;50.774;12.918;2023-01-24T17:17:35;1.00;98.90
7014;DHT22;3547;50.774;12.918;2023-01-24T17:20:02;1.00;99.00
7014;DHT22;3547;50.774;12.918;2023-01-24T17:22:29;1.00;99.90
7014;DHT22;3547;50.774;12.918;2023-01-24T17:24:55;1.00;99.90
7014;DHT22;3547;50.774;12.918;2023-01-24T17:27:21;1.00;99.90
7014;DHT22;3547;50.774;12.918;2023-01-24T17:29:47;0.90;99.90
7014;DHT22;3547;50.774;12.918;2023-01-24T17:32:14;0.90;99.90
7014;DHT22;3547;50.774;12.918;2023-01-24T17:34:40;0.90;99.90
7014;DHT22;3547;50.774;12.918;2023-01-24T17:37:06;0.90;99.90
7014;DHT22;3547;50.774;12.918;2023-01-24T17:39:32;0.90;99.90
7014;DHT22;3547;50.774;12.918;2023-01-24T17:41:58;0.90;99.90
7014;DHT22;3547;50.774;12.918;2023-01-24T17:44:24;1.00;99.90
7014;DHT22;3547;50.774;12.918;2023-01-24T17:46:50;1.00;99.10
7014;DHT22;3547;50.774;12.918;2023-01-24T17:49:17;1.00;96.80
7014;DHT22;3547;50.774;12.918;2023-01-24T17:51:43;0.90;98.30
7014;DHT22;3547;50.774;12.918;2023-01-24T17:54:12;1.00;99.90
7014;DHT22;3547;50.774;12.918;2023-01-24T17:56:39;0.90;99.90
7014;DHT22;3547;50.774;12.918;2023-01-24T17:59:05;0.90;99.90
7014;DHT22;3547;50.774;12.918;2023-01-24T18:01:31;0.80;99.90
7014;DHT22;3547;50.774;12.918;2023-01-24T18:03:57;0.80;99.90
7014;DHT22;3547;50.774;12.918;2023-01-24T18:06:23;0.80;99.90
7014;DHT22;3547;50.774;12.918;2023-01-24T18:08:49;0.80;99.90
7014;DHT22;3547;50.774;12.918;2023-01-24T18:11:17;0.70;99.90
7014;DHT22;3547;50.774;12.918;2023-01-24T18:13:43;0.70;99.90
7014;DHT22;3547;50.774;12.918;2023-01-24T18:16:16;0.70;99.90
7014;DHT22;3547;50.774;12.918;2023-01-24T18:18:42;0.80;99.90
7014;DHT22;3547;50.774;12.918;2023-01-24T18:21:12;0.70;99.90
7014;DHT22;3547;50.774;12.918;2023-01-24T18:23:39;0.70;99.90
7014;DHT22;3547;50.774;12.918;2023-01-24T18:26:06;0.70;99.90
7014;DHT22;3547;50.774;12.918;2023-01-24T18:28:33;0.80;99.90
7014;DHT22;3547;50.774;12.918;2023-01-24T18:30:59;0.80;99.90
7014;DHT22;3547;50.774;12.918;2023-01-24T18:33:25;0.80;99.90
7014;DHT22;3547;50.774;12.918;2023-01-24T18:35:52;0.80;99.90
7014;DHT22;3547;50.774;12.918;2023-01-24T18:38:18;0.80;99.90
7014;DHT22;3547;50.774;12.918;2023-01-24T18:40:44;0.80;99.90
7014;DHT22;3547;50.774;12.918;2023-01-24T18:43:10;0.80;99.90
7014;DHT22;3547;50.774;12.918;2023-01-24T18:45:37;0.80;99.60
7014;DHT22;3547;50.774;12.918;2023-01-24T18:48:04;0.80;99.60
7014;DHT22;3547;50.774;12.918;2023-01-24T18:50:30;0.70;93.80
7014;DHT22;3547;50.774;12.918;2023-01-24T18:52:56;0.80;99.90
7014;DHT22;3547;50.774;12.918;2023-01-24T18:55:22;0.80;99.90
7014;DHT22;3547;50.774;12.918;2023-01-24T18:57:48;0.80;99.90
7014;DHT22;3547;50.774;12.918;2023-01-24T19:00:15;0.80;99.90
7014;DHT22;3547;50.774;12.918;2023-01-24T19:02:44;0.70;99.90
7014;DHT22;3547;50.774;12.918;2023-01-24T19:05:10;0.70;99.90
7014;DHT22;3547;50.774;12.918;2023-01-24T19:07:37;0.80;99.90
7014;DHT22;3547;50.774;12.918;2023-01-24T19:10:06;0.80;99.90
7014;DHT22;3547;50.774;12.918;2023-01-24T19:12:33;0.80;98.90
7014;DHT22;3547;50.774;12.918;2023-01-24T19:14:59;0.80;99.90